Time;durP1;ratioP1;P1;durP2;ratioP2;P2;SDS_P1;SDS_P2;PMS_P1;PMS_P2;Temp;Humidity;BMP_temperature;BMP_pressure;BME280_temperature;BME280_humidity;BME280_pressure;Samples;Min_cycle;Max_cycle;Signal;HPM_P1;HPM_P2
2023/05/28 00:01:33;;;;;;;4.30;4.00;;;;;;;14.54;100.00;63500.25;5126725;28;20219;-79
2023/05/28 00:04:00;;;;;;;4.28;3.97;;;;;;;14.51;100.00;63497.16;5130095;28;20223;-77
2023/05/28 00:06:30;;;;;;;3.63;3.40;;;;;;;14.57;100.00;63503.38;5121181;28;20259;-79
2023/05/28 00:08:57;;;;;;;4.53;3.80;;;;;;;14.46;100.00;63492.47;5120104;28;20262;-79
2023/05/28 00:11:25;;;;;;;6.88;4.40;;;;;;;14.35;100.00;63477.97;5115444;28;20223;-78
2023/05/28 00:13:52;;;;;;;5.90;4.00;;;;;;;14.36;100.00;63489.75;5107104;28;20212;-78
2023/05/28 00:16:19;;;;;;;4.63;4.28;;;;;;;14.34;100.00;63474.88;5119980;28;20276;-78
2023/05/28 00:18:46;;;;;;;4.57;4.28;;;;;;;14.58;100.00;63504.91;5129421;28;20199;-78
2023/05/28 00:21:13;;;;;;;4.97;4.68;;;;;;;14.56;100.00;63502.34;5111363;28;20499;-77
2023/05/28 00:23:42;;;;;;;4.72;4.10;;;;;;;14.64;100.00;63516.28;5110229;28;20204;-78
2023/05/28 00:26:09;;;;;;;6.28;5.68;;;;;;;14.74;100.00;63521.03;5124016;28;20592;-78
2023/05/28 00:28:36;;;;;;;4.65;4.25;;;;;;;14.75;100.00;63525.13;5106647;28;20199;-77
2023/05/28 00:31:02;;;;;;;6.15;5.75;;;;;;;14.69;100.00;63518.41;5106554;28;20200;-77
2023/05/28 00:33:30;;;;;;;8.43;7.32;;;;;;;14.61;100.00;63507.53;5114513;28;20458;-77
2023/05/28 00:35:57;;;;;;;7.97;7.18;;;;;;;14.56;100.00;63502.88;5121806;28;20199;-78
2023/05/28 00:38:24;;;;;;;9.00;8.00;;;;;;;14.54;100.00;63503.34;5114633;28;20207;-78
2023/05/28 00:40:54;;;;;;;9.13;7.53;;;;;;;14.48;100.00;63491.97;5116076;28;20196;-78
2023/05/28 00:43:21;;;;;;;9.65;8.13;;;;;;;14.57;100.00;63503.88;5125804;28;20209;-79
2023/05/28 00:45:49;;;;;;;9.07;8.25;;;;;;;14.56;100.00;63502.34;5129891;28;20223;-77
2023/05/28 00:48:16;;;;;;;11.20;9.25;;;;;;;14.48;100.00;63494.53;5111828;28;20219;-78
2023/05/28 00:50:44;;;;;;;9.60;8.70;;;;;;;14.54;100.00;63500.25;5109159;28;20200;-79
2023/05/28 00:53:12;;;;;;;9.32;8.43;;;;;;;14.51;100.00;63495.09;5127525;28;20336;-78
2023/05/28 00:55:39;;;;;;;9.68;8.57;;;;;;;14.50;100.00;63501.22;5116647;28;20476;-79
2023/05/28 00:58:08;;;;;;;11.00;8.60;;;;;;;14.45;100.00;63490.91;5126787;28;20215;-77
2023/05/28 01:00:36;;;;;;;9.48;8.57;;;;;;;14.40;100.00;63486.25;5109871;28;20199;-77
2023/05/28 01:03:03;;;;;;;16.23;8.90;;;;;;;14.39;100.00;63490.31;5113679;28;20207;-77
2023/05/28 01:05:32;;;;;;;10.13;8.90;;;;;;;14.37;100.00;63480.56;5112767;28;20234;-78
2023/05/28 01:08:00;;;;;;;10.13;8.57;;;;;;;14.50;100.00;63493.53;5116344;28;20545;-77
2023/05/28 01:10:27;;;;;;;10.68;8.55;;;;;;;14.44;100.00;63487.84;5120399;28;20206;-78
2023/05/28 01:12:56;;;;;;;8.93;7.50;;;;;;;14.40;100.00;63488.28;5127577;28;20219;-79
2023/05/28 01:15:25;;;;;;;10.95;7.82;;;;;;;14.27;100.00;63472.22;5127710;28;20480;-79
2023/05/28 01:17:57;;;;;;;8.18;7.47;;;;;;;14.36;100.00;63482.06;5112544;28;20539;-78
2023/05/28 01:20:24;;;;;;;8.25;7.45;;;;;;;14.39;100.00;63485.19;5128060;28;20319;-78
2023/05/28 01:22:56;;;;;;;8.73;7.25;;;;;;;14.43;100.00;63486.25;5128983;28;20244;-78
2023/05/28 01:25:26;;;;;;;8.88;6.90;;;;;;;14.42;100.00;63487.78;5126229;28;20413;-80
2023/05/28 01:27:54;;;;;;;7.65;6.88;;;;;;;14.38;100.00;63484.16;5116308;28;20272;-78
2023/05/28 01:30:21;;;;;;;8.23;7.13;;;;;;;14.41;100.00;63486.75;5121585;28;20568;-79
2023/05/28 01:32:48;;;;;;;7.35;6.70;;;;;;;14.34;100.00;63482.06;5126127;28;20215;-78
2023/05/28 01:35:15;;;;;;;7.10;6.38;;;;;;;14.29;100.00;63471.75;5131069;28;20195;-77
2023/05/28 01:37:47;;;;;;;7.05;6.43;;;;;;;14.16;100.00;63463.84;5122079;27;20448;-78
2023/05/28 01:40:16;;;;;;;7.22;6.60;;;;;;;14.01;100.00;63448.28;5125416;28;20187;-78
2023/05/28 01:42:46;;;;;;;8.45;7.20;;;;;;;14.04;100.00;63451.41;5117550;28;20216;-78
2023/05/28 01:45:14;;;;;;;6.60;6.00;;;;;;;14.02;100.00;63444.19;5109952;28;20238;-79
2023/05/28 01:47:41;;;;;;;9.32;6.55;;;;;;;13.99;100.00;63443.66;5125828;28;20212;-79
2023/05/28 01:50:09;;;;;;;7.85;6.78;;;;;;;14.03;100.00;63445.22;5128385;28;20502;-76
2023/05/28 01:52:36;;;;;;;6.57;5.97;;;;;;;14.08;100.00;63449.91;5127536;28;20226;-77
2023/05/28 01:55:04;;;;;;;6.75;5.95;;;;;;;14.07;100.00;63451.41;5108290;28;20244;-79
2023/05/28 01:57:31;;;;;;;8.85;6.47;;;;;;;14.10;100.00;63452.50;5106016;28;20237;-79
2023/05/28 02:00:00;;;;;;;6.68;6.10;;;;;;;14.11;100.00;63453.03;5123089;28;20198;-79
2023/05/28 02:02:27;;;;;;;6.72;6.13;;;;;;;14.10;100.00;63452.00;5124438;28;20231;-79
2023/05/28 02:04:54;;;;;;;7.93;6.03;;;;;;;14.21;100.00;63465.97;5105555;28;20284;-78
2023/05/28 02:07:21;;;;;;;6.72;6.13;;;;;;;14.23;100.00;63468.03;5109401;28;20216;-78
2023/05/28 02:09:49;;;;;;;6.97;5.50;;;;;;;14.26;100.00;63466.56;5106546;28;20575;-78
2023/05/28 02:12:16;;;;;;;6.78;6.18;;;;;;;14.29;100.00;63469.19;5106424;28;20236;-77
2023/05/28 02:14:44;;;;;;;6.57;5.97;;;;;;;14.35;100.00;63481.03;5124475;28;20266;-79
2023/05/28 02:17:13;;;;;;;7.07;6.03;;;;;;;14.37;100.00;63482.59;5107006;28;20258;-79
2023/05/28 02:19:41;;;;;;;7.05;6.45;;;;;;;14.34;100.00;63476.94;5122375;28;20191;-77
2023/05/28 02:22:11;;;;;;;6.45;5.82;;;;;;;14.33;100.00;63481.00;5121786;28;20238;-78
2023/05/28 02:24:39;;;;;;;7.05;5.28;;;;;;;14.29;100.00;63476.88;5125950;28;20544;-79
2023/05/28 02:27:07;;;;;;;11.32;6.47;;;;;;;14.30;100.00;63478.41;5127476;28;20278;-78
2023/05/28 02:29:34;;;;;;;5.53;5.03;;;;;;;14.31;100.00;63473.81;5112929;28;20195;-78
2023/05/28 02:32:02;;;;;;;6.35;5.75;;;;;;;14.26;100.00;63471.69;5105547;28;20219;-78
2023/05/28 02:34:31;;;;;;;5.93;5.28;;;;;;;14.22;100.00;63467.00;5122736;28;20376;-77
2023/05/28 02:37:00;;;;;;;5.90;5.45;;;;;;;14.33;100.00;63476.41;5125800;28;20229;-78
2023/05/28 02:39:27;;;;;;;5.97;5.55;;;;;;;14.14;100.00;63458.69;5109247;28;20204;-77
2023/05/28 02:41:53;;;;;;;6.03;5.50;;;;;;;14.44;100.00;63487.84;5110532;28;20216;-78
2023/05/28 02:44:20;;;;;;;6.22;5.65;;;;;;;14.50;100.00;63493.53;5111497;28;20233;-78
2023/05/28 02:46:47;;;;;;;5.85;5.45;;;;;;;14.43;100.00;63488.81;5110417;28;20399;-77
2023/05/28 02:49:14;;;;;;;6.10;5.50;;;;;;;14.46;100.00;63486.81;5120431;28;20232;-77
2023/05/28 02:51:42;;;;;;;5.28;4.95;;;;;;;14.49;100.00;63497.63;5128444;28;20215;-78
2023/05/28 02:54:09;;;;;;;5.60;5.25;;;;;;;14.43;100.00;63486.78;5131572;28;20196;-78
2023/05/28 02:56:36;;;;;;;5.55;5.15;;;;;;;14.45;100.00;63494.00;5129254;28;20253;-77
2023/05/28 02:59:03;;;;;;;5.20;4.70;;;;;;;14.50;100.00;63496.09;5120825;27;20192;-79
2023/05/28 03:01:31;;;;;;;5.55;5.05;;;;;;;14.41;100.00;63486.75;5129965;28;20222;-78
2023/05/28 03:03:58;;;;;;;6.35;5.35;;;;;;;14.50;100.00;63496.09;5123768;28;20212;-78
2023/05/28 03:06:25;;;;;;;6.13;4.82;;;;;;;14.52;100.00;63498.19;5106936;28;20473;-78
2023/05/28 03:08:53;;;;;;;6.47;5.88;;;;;;;14.52;100.00;63498.19;5110787;28;20211;-78
2023/05/28 03:11:20;;;;;;;6.57;5.95;;;;;;;14.56;100.00;63499.78;5109113;28;20215;-78
2023/05/28 03:13:47;;;;;;;7.82;5.35;;;;;;;14.61;100.00;63504.97;5110815;28;20268;-78
2023/05/28 03:16:14;;;;;;;8.48;5.93;;;;;;;14.68;100.00;63517.88;5108081;28;20248;-78
2023/05/28 03:18:41;;;;;;;6.07;5.50;;;;;;;14.70;100.00;63516.88;5107514;28;20196;-78
2023/05/28 03:21:09;;;;;;;5.72;5.20;;;;;;;14.68;100.00;63512.75;5107451;28;20544;-78
2023/05/28 03:23:35;;;;;;;6.30;5.43;;;;;;;14.62;100.00;63514.22;5115642;28;20215;-79
2023/05/28 03:26:04;;;;;;;9.45;5.32;;;;;;;14.61;100.00;63508.06;5130321;28;20291;-78
2023/05/28 03:28:31;;;;;;;5.65;4.93;;;;;;;14.58;100.00;63502.34;5128695;28;20207;-78
2023/05/28 03:30:58;;;;;;;5.72;5.10;;;;;;;14.64;100.00;63516.28;5117950;27;20199;-78
2023/05/28 03:33:25;;;;;;;5.53;4.78;;;;;;;14.61;100.00;63505.50;5109696;28;20211;-79
2023/05/28 03:35:52;;;;;;;4.90;4.57;;;;;;;14.63;100.00;63507.56;5108559;28;20196;-79
2023/05/28 03:38:19;;;;;;;5.00;4.70;;;;;;;14.63;100.00;63507.03;5114958;28;20211;-78
2023/05/28 03:40:46;;;;;;;5.13;4.75;;;;;;;14.69;100.00;63513.28;5129166;28;20187;-79
2023/05/28 03:43:15;;;;;;;5.00;4.60;;;;;;;14.71;100.00;63517.91;5121549;28;20200;-79
2023/05/28 03:45:42;;;;;;;4.50;4.20;;;;;;;14.74;100.00;63521.03;5114493;28;20227;-79
2023/05/28 03:48:09;;;;;;;5.40;4.90;;;;;;;14.65;100.00;63514.75;5121672;28;20578;-79
2023/05/28 03:50:36;;;;;;;5.05;4.65;;;;;;;14.63;100.00;63507.56;5121280;28;20192;-79
2023/05/28 03:53:03;;;;;;;7.47;5.07;;;;;;;14.75;100.00;63525.13;5114480;27;20235;-78
2023/05/28 03:55:30;;;;;;;5.90;5.30;;;;;;;14.80;100.00;63530.34;5125385;28;20198;-79
2023/05/28 03:57:57;;;;;;;5.28;4.88;;;;;;;14.87;100.00;63537.63;5128470;28;20223;-78
2023/05/28 04:00:25;;;;;;;7.07;5.60;;;;;;;14.92;100.00;63539.72;5109478;28;20511;-78
2023/05/28 04:02:52;;;;;;;8.95;5.07;;;;;;;14.91;100.00;63541.78;5118314;28;20207;-78
2023/05/28 04:05:19;;;;;;;5.88;4.93;;;;;;;14.83;100.00;63533.47;5127824;28;20420;-78
2023/05/28 04:07:46;;;;;;;6.13;5.55;;;;;;;14.95;100.00;63540.28;5129000;28;20380;-78
2023/05/28 04:10:13;;;;;;;6.45;5.28;;;;;;;14.91;100.00;63534.06;5120706;28;20196;-80
2023/05/28 04:12:40;;;;;;;6.22;5.72;;;;;;;14.83;100.00;63536.03;5110363;28;20532;-78
2023/05/28 04:15:08;;;;;;;5.72;5.22;;;;;;;14.92;100.00;63535.13;5109113;28;20208;-78
2023/05/28 04:17:37;;;;;;;5.72;5.28;;;;;;;14.99;100.00;63549.56;5111637;28;20274;-78
2023/05/28 04:20:06;;;;;;;7.18;5.50;;;;;;;15.05;100.00;63558.88;5111902;28;20203;-79
2023/05/28 04:22:33;;;;;;;7.20;5.38;;;;;;;15.12;100.00;63560.50;5106589;28;20219;-80
2023/05/28 04:25:01;;;;;;;5.65;5.15;;;;;;;15.06;100.00;63559.91;5120046;28;20283;-78
2023/05/28 04:27:28;;;;;;;6.20;5.60;;;;;;;15.15;100.00;63563.13;5117746;28;20226;-78
2023/05/28 04:29:56;;;;;;;6.68;5.18;;;;;;;15.18;100.00;63566.22;5121978;28;20197;-79
2023/05/28 04:32:23;;;;;;;6.15;5.55;;;;;;;15.18;100.00;63566.75;5117863;28;20283;-78
2023/05/28 04:34:53;;;;;;;9.02;6.43;;;;;;;15.23;100.00;63574.00;5112898;28;20406;-79
2023/05/28 04:37:21;;;;;;;6.07;5.57;;;;;;;15.22;100.00;63572.94;5109836;28;20559;-80
2023/05/28 04:39:49;;;;;;;6.70;5.60;;;;;;;15.16;100.00;63564.66;5114479;28;20198;-78
2023/05/28 04:42:18;;;;;;;5.63;5.13;;;;;;;15.13;100.00;63561.03;5115007;28;20246;-80
2023/05/28 04:44:44;;;;;;;6.00;5.55;;;;;;;15.13;100.00;63561.56;5117985;28;20203;-78
2023/05/28 04:47:14;;;;;;;8.02;5.82;;;;;;;14.99;100.00;63544.44;5107270;28;20268;-77
2023/05/28 04:49:41;;;;;;;5.57;5.03;;;;;;;14.95;100.00;63543.38;5112159;28;20196;-80
2023/05/28 04:52:10;;;;;;;7.20;6.22;;;;;;;15.10;100.00;63558.44;5110160;28;20230;-78
2023/05/28 04:54:37;;;;;;;9.52;6.10;;;;;;;15.05;100.00;63555.78;5112273;28;20199;-78
2023/05/28 04:57:04;;;;;;;10.25;6.22;;;;;;;15.14;100.00;63559.50;5120877;28;20219;-78
2023/05/28 04:59:31;;;;;;;7.28;5.88;;;;;;;15.19;100.00;63567.78;5115839;28;20268;-78
2023/05/28 05:01:58;;;;;;;6.85;5.82;;;;;;;15.19;100.00;63570.34;5113882;28;20215;-79
2023/05/28 05:04:25;;;;;;;6.00;5.55;;;;;;;15.28;100.00;63574.56;5123044;28;20211;-78
2023/05/28 05:06:52;;;;;;;6.40;5.78;;;;;;;15.31;100.00;63582.81;5106508;28;20325;-78
2023/05/28 05:09:20;;;;;;;7.72;6.47;;;;;;;15.47;100.00;63594.34;5115139;28;20195;-78
2023/05/28 05:11:47;;;;;;;7.72;6.00;;;;;;;15.49;100.00;63599.00;5118149;28;20416;-78
2023/05/28 05:14:14;;;;;;;14.38;6.82;;;;;;;15.52;100.00;63604.16;5111717;28;20207;-77
2023/05/28 05:16:41;;;;;;;10.82;7.40;;;;;;;15.50;100.00;63602.59;5107812;28;20261;-79
2023/05/28 05:19:08;;;;;;;7.63;6.82;;;;;;;15.57;100.00;63607.31;5114690;28;20194;-78
2023/05/28 05:21:35;;;;;;;7.30;6.13;;;;;;;15.66;100.00;63618.69;5118647;28;20234;-79
2023/05/28 05:24:02;;;;;;;7.00;6.38;;;;;;;15.74;100.00;63622.41;5116610;28;20232;-79
2023/05/28 05:26:31;;;;;;;9.45;6.30;;;;;;;15.78;100.00;63629.13;5109502;28;20283;-79
2023/05/28 05:28:58;;;;;;;6.78;6.22;;;;;;;15.91;100.00;63644.72;5110548;28;20221;-79
2023/05/28 05:31:25;;;;;;;7.10;6.40;;;;;;;15.87;100.00;63635.41;5107596;28;20284;-78
2023/05/28 05:33:52;;;;;;;6.40;5.80;;;;;;;15.84;100.00;63632.78;5106172;28;20210;-78
2023/05/28 05:36:20;;;;;;;7.65;5.95;;;;;;;15.96;100.00;63647.84;5108857;28;20225;-79
2023/05/28 05:38:47;;;;;;;6.78;6.18;;;;;;;15.97;100.00;63645.81;5126959;28;20539;-79
2023/05/28 05:41:15;;;;;;;6.57;6.03;;;;;;;16.09;100.00;63655.72;5128374;28;20218;-78
2023/05/28 05:43:43;;;;;;;6.43;5.88;;;;;;;16.18;100.00;63670.22;5130068;28;20201;-80
2023/05/28 05:46:10;;;;;;;6.43;5.93;;;;;;;16.34;100.00;63686.34;5127172;28;20256;-79
2023/05/28 05:48:37;;;;;;;7.70;5.35;;;;;;;16.44;100.00;63697.25;5124512;27;20198;-78
2023/05/28 05:51:06;;;;;;;6.20;5.45;;;;;;;16.54;100.00;63707.16;5124101;28;20194;-78
2023/05/28 05:53:32;;;;;;;6.50;5.13;;;;;;;16.55;100.00;63708.72;5127097;28;20191;-81
2023/05/28 05:55:59;;;;;;;7.38;5.05;;;;;;;16.52;100.00;63707.66;5110388;28;20210;-78
2023/05/28 05:58:27;;;;;;;5.60;5.05;;;;;;;16.56;100.00;63711.81;5114575;28;20199;-79
2023/05/28 06:00:55;;;;;;;5.70;5.10;;;;;;;16.61;100.00;63717.53;5109478;28;20195;-78
2023/05/28 06:03:22;;;;;;;7.18;5.13;;;;;;;16.40;100.00;63693.09;5109899;28;20233;-78
2023/05/28 06:05:50;;;;;;;4.75;4.35;;;;;;;16.18;100.00;63670.22;5107538;28;20253;-79
2023/05/28 06:08:17;;;;;;;4.82;4.43;;;;;;;16.31;100.00;63688.38;5109701;28;20302;-79
2023/05/28 06:10:44;;;;;;;5.80;5.15;;;;;;;16.34;100.00;63686.34;5107580;28;20545;-80
2023/05/28 06:13:11;;;;;;;4.40;4.07;;;;;;;16.38;100.00;63687.91;5116816;28;20207;-79
2023/05/28 06:15:38;;;;;;;10.50;4.88;;;;;;;16.39;100.00;63688.97;5130677;28;20344;-80
2023/05/28 06:18:06;;;;;;;5.30;4.90;;;;;;;16.42;100.00;63694.66;5127361;28;20255;-79
2023/05/28 06:20:34;;;;;;;4.68;4.32;;;;;;;16.30;100.00;63679.59;5118104;27;20533;-79
2023/05/28 06:23:01;;;;;;;4.97;4.57;;;;;;;16.23;100.00;63670.28;5119219;28;20226;-79
2023/05/28 06:25:28;;;;;;;4.75;4.32;;;;;;;16.26;100.00;63675.97;5116183;28;20206;-80
2023/05/28 06:27:56;;;;;;;4.32;4.03;;;;;;;16.09;100.00;63663.41;5111175;28;20521;-79
2023/05/28 06:30:24;;;;;;;4.43;4.10;;;;;;;15.94;100.00;63642.69;5126307;28;20233;-80
2023/05/28 06:32:51;;;;;;;4.90;4.53;;;;;;;15.77;100.00;63628.09;5117587;28;20242;-79
2023/05/28 06:35:19;;;;;;;5.00;4.70;;;;;;;15.70;100.00;63622.88;5115127;28;20205;-79
2023/05/28 06:37:46;;;;;;;5.45;5.05;;;;;;;15.77;100.00;63627.59;5110592;28;20212;-79
2023/05/28 06:40:14;;;;;;;5.72;5.20;;;;;;;15.78;100.00;63628.63;5111919;28;20191;-80
2023/05/28 06:42:40;;;;;;;5.90;4.60;;;;;;;15.81;100.00;63631.72;5131538;27;20218;-79
2023/05/28 06:45:09;;;;;;;7.10;5.40;;;;;;;15.67;100.00;63614.63;5135299;28;20191;-79
2023/05/28 06:47:35;;;;;;;6.45;5.88;;;;;;;15.63;100.00;63610.97;5127665;28;20231;-79
2023/05/28 06:50:02;;;;;;;7.90;6.15;;;;;;;15.62;100.00;63611.97;5118719;28;20297;-80
2023/05/28 06:52:31;;;;;;;6.38;5.78;;;;;;;15.58;100.00;63602.69;5110057;28;20239;-79
2023/05/28 06:54:58;;;;;;;5.78;5.28;;;;;;;15.59;100.00;63606.81;5111194;28;20361;-79
2023/05/28 06:57:25;;;;;;;5.28;4.97;;;;;;;15.39;100.00;63588.06;5125988;28;20212;-78
2023/05/28 06:59:51;;;;;;;8.07;5.60;;;;;;;15.05;100.00;63553.75;5131654;28;20284;-80
2023/05/28 07:02:19;;;;;;;7.60;6.18;;;;;;;15.12;100.00;63560.00;5130874;28;20215;-80
2023/05/28 07:04:46;;;;;;;7.47;5.38;;;;;;;15.01;100.00;63547.03;5119404;28;20237;-80
2023/05/28 07:07:13;;;;;;;6.15;5.60;;;;;;;15.11;100.00;63558.94;5117185;28;20238;-80
2023/05/28 07:09:41;;;;;;;6.22;5.53;;;;;;;14.96;100.00;63549.53;5130481;28;20256;-79
2023/05/28 07:12:08;;;;;;;6.70;6.13;;;;;;;14.80;100.00;63529.84;5117803;28;20233;-79
2023/05/28 07:14:35;;;;;;;6.57;6.05;;;;;;;14.68;100.00;63514.81;5121235;28;20233;-80
2023/05/28 07:17:02;;;;;;;9.13;7.22;;;;;;;14.76;100.00;63531.31;5127369;28;20300;-82
2023/05/28 07:19:30;;;;;;;8.52;7.68;;;;;;;14.61;100.00;63507.53;5116762;28;20214;-79
2023/05/28 07:21:57;;;;;;;9.10;7.53;;;;;;;14.63;100.00;63509.59;5118594;27;20255;-81
2023/05/28 07:24:24;;;;;;;9.75;7.78;;;;;;;15.00;100.00;63551.13;5118121;28;20227;-79
2023/05/28 07:26:53;;;;;;;6.30;5.82;;;;;;;15.38;100.00;63584.97;5109588;28;20254;-79
2023/05/28 07:29:20;;;;;;;6.15;5.65;;;;;;;15.65;100.00;63613.03;5123343;28;20207;-78
2023/05/28 07:31:47;;;;;;;6.65;4.57;;;;;;;15.75;100.00;63626.03;5122454;28;20214;-79
2023/05/28 07:34:14;;;;;;;4.70;4.40;;;;;;;16.03;100.00;63652.06;5112553;28;20206;-78
2023/05/28 07:36:42;;;;;;;4.50;4.20;;;;;;;16.46;100.00;63704.50;5125805;28;20222;-79
2023/05/28 07:39:10;;;;;;;4.47;4.07;;;;;;;16.77;100.00;63731.63;5117132;28;20351;-78
2023/05/28 07:41:37;;;;;;;4.40;4.10;;;;;;;16.87;100.00;63742.03;5112288;28;20255;-77
2023/05/28 07:44:06;;;;;;;4.38;3.97;;;;;;;16.95;100.00;63749.81;5113674;28;20229;-79
2023/05/28 07:46:33;;;;;;;5.38;4.97;;;;;;;17.12;100.00;63762.88;5110344;28;20231;-77
2023/05/28 07:49:03;;;;;;;4.30;3.90;;;;;;;17.24;100.00;63777.94;5112147;28;20236;-78
2023/05/28 07:51:30;;;;;;;5.00;4.45;;;;;;;17.28;100.00;63782.13;5115175;28;20225;-78
2023/05/28 07:53:57;;;;;;;3.95;3.65;;;;;;;17.18;100.00;63768.63;5108248;28;20203;-77
2023/05/28 07:56:24;;;;;;;4.55;3.90;;;;;;;16.99;100.00;63754.50;5115947;28;20214;-79
2023/05/28 07:58:51;;;;;;;4.85;3.47;;;;;;;16.86;100.00;63740.97;5121353;28;20290;-78
2023/05/28 08:01:20;;;;;;;5.65;3.70;;;;;;;16.93;100.00;63750.31;5120214;28;20265;-78
2023/05/28 08:03:50;;;;;;;4.35;3.97;;;;;;;16.99;100.00;63751.41;5122195;28;20198;-79
2023/05/28 08:06:18;;;;;;;3.88;3.47;;;;;;;16.71;100.00;63724.84;5108260;27;20227;-78
2023/05/28 08:08:44;;;;;;;3.90;3.65;;;;;;;16.62;100.00;63712.91;5107857;28;20252;-77
2023/05/28 08:11:13;;;;;;;5.13;4.63;;;;;;;16.23;100.00;63680.56;5111633;28;20219;-77
2023/05/28 08:13:40;;;;;;;4.80;4.43;;;;;;;16.42;100.00;63692.09;5112496;28;20217;-78
2023/05/28 08:16:07;;;;;;;4.65;4.22;;;;;;;16.60;100.00;63713.41;5132407;28;20274;-80
2023/05/28 08:18:36;;;;;;;4.57;4.25;;;;;;;16.81;100.00;63737.81;5113137;28;20203;-79
2023/05/28 08:21:03;;;;;;;5.75;4.20;;;;;;;16.77;100.00;63731.63;5107434;28;20226;-78
2023/05/28 08:23:34;;;;;;;4.65;4.25;;;;;;;16.49;100.00;63701.97;5107960;28;20203;-78
2023/05/28 08:26:01;;;;;;;7.10;3.95;;;;;;;16.18;100.00;63672.78;5107402;28;20259;-78
2023/05/28 08:28:29;;;;;;;4.88;3.80;;;;;;;16.39;100.00;63691.53;5113979;28;20263;-78
2023/05/28 08:30:56;;;;;;;4.35;3.60;;;;;;;16.59;100.00;63712.34;5113274;28;20200;-78
2023/05/28 08:33:23;;;;;;;4.30;3.83;;;;;;;16.72;100.00;63725.91;5113972;27;20313;-78
2023/05/28 08:35:55;;;;;;;3.50;3.30;;;;;;;16.79;100.00;63733.69;5106384;28;20231;-79
2023/05/28 08:38:22;;;;;;;3.83;3.42;;;;;;;17.03;100.00;63755.59;5104000;28;20486;-79
2023/05/28 08:40:54;;;;;;;4.10;3.70;;;;;;;16.77;100.00;63731.63;5105756;28;20489;-78
2023/05/28 08:43:21;;;;;;;3.25;3.03;;;;;;;16.74;100.00;63733.13;5109665;28;20200;-80
2023/05/28 08:45:51;;;;;;;3.47;3.25;;;;;;;16.70;100.00;63723.81;5111412;28;20294;-78
2023/05/28 08:48:18;;;;;;;3.75;3.20;;;;;;;16.74;100.00;63728.47;5112854;28;20223;-79
2023/05/28 08:50:48;;;;;;;3.92;3.58;;;;;;;17.01;100.00;63756.59;5120347;28;20440;-79
2023/05/28 08:53:20;;;;;;;4.03;3.72;;;;;;;17.13;100.00;63771.13;5127178;28;20220;-79
2023/05/28 08:55:47;;;;;;;5.25;4.85;;;;;;;17.06;100.00;63764.38;5124839;28;20288;-79
2023/05/28 08:58:15;;;;;;;5.40;3.92;;;;;;;17.10;100.00;63765.44;5118755;28;20195;-80
2023/05/28 09:00:43;;;;;;;5.88;3.95;;;;;;;17.19;100.00;63777.91;5107996;28;20195;-78
2023/05/28 09:03:10;;;;;;;3.42;3.22;;;;;;;17.34;100.00;63787.84;5116507;28;20226;-79
2023/05/28 09:05:38;;;;;;;3.90;3.65;;;;;;;17.91;100.00;63849.28;5125627;28;20511;-80
2023/05/28 09:08:08;;;;;;;3.17;2.88;;;;;;;18.42;100.00;63902.94;5127766;28;20249;-79
2023/05/28 09:10:37;;;;;;;3.58;3.28;;;;;;;18.48;100.00;63911.25;5120532;28;20258;-79
2023/05/28 09:13:05;;;;;;;4.85;3.20;;;;;;;18.51;100.00;63911.81;5118102;28;20298;-80
2023/05/28 09:15:34;;;;;;;3.53;3.33;;;;;;;18.65;100.00;63925.88;5130440;28;20233;-81
2023/05/28 09:18:02;;;;;;;5.55;3.67;;;;;;;18.80;100.00;63944.59;5127994;28;20214;-79
2023/05/28 09:20:29;;;;;;;3.20;2.90;;;;;;;18.41;100.00;63901.91;5108215;28;20206;-80
2023/05/28 09:23:00;;;;;;;3.72;3.42;;;;;;;18.54;100.00;63917.50;5115574;28;20215;-80
2023/05/28 09:25:28;;;;;;;3.33;3.13;;;;;;;18.47;100.00;63909.69;5118429;28;20195;-80
2023/05/28 09:27:59;;;;;;;3.15;2.95;;;;;;;18.23;100.00;63883.13;5107171;28;20253;-78
2023/05/28 09:30:26;;;;;;;3.30;3.10;;;;;;;17.93;100.00;63853.94;5128807;28;20206;-80
2023/05/28 09:33:02;;;;;;;3.40;3.20;;;;;;;17.60;100.00;63814.91;5112468;28;20222;-79
2023/05/28 09:35:30;;;;;;;3.42;3.10;;;;;;;16.88;100.00;63739.97;5126649;28;20210;-78
2023/05/28 09:38:04;;;;;;;3.92;3.63;;;;;;;16.43;100.00;63693.13;5116369;28;20219;-80
2023/05/28 09:40:31;;;;;;;3.58;3.30;;;;;;;16.17;100.00;63672.25;5109927;28;20227;-78
2023/05/28 09:43:05;;;;;;;6.60;4.55;;;;;;;15.98;100.00;63649.94;5117681;28;20418;-78
2023/05/28 09:45:32;;;;;;;4.97;3.45;;;;;;;16.06;100.00;63655.69;5118411;28;20187;-79
2023/05/28 09:47:59;;;;;;;4.57;3.45;;;;;;;16.16;100.00;63666.09;5112982;28;20519;-78
2023/05/28 09:50:26;;;;;;;4.18;3.85;;;;;;;16.23;100.00;63674.88;5116827;28;20191;-80
2023/05/28 09:52:56;;;;;;;4.30;3.90;;;;;;;16.31;100.00;63681.16;5113087;28;20233;-79
2023/05/28 09:55:25;;;;;;;7.03;4.25;;;;;;;16.15;100.00;63662.47;5118360;28;20195;-77
2023/05/28 09:58:02;;;;;;;7.00;4.22;;;;;;;16.05;100.00;63666.97;5112738;28;20268;-78
2023/05/28 10:00:33;;;;;;;5.10;4.60;;;;;;;15.91;100.00;63644.72;5107259;28;20278;-78
2023/05/28 10:03:23;;;;;;;6.75;4.30;;;;;;;15.56;100.00;63605.75;5115842;28;20211;-79
2023/05/28 10:05:53;;;;;;;4.85;4.45;;;;;;;15.29;100.00;63580.22;5118297;28;20198;-79
2023/05/28 10:08:24;;;;;;;5.13;4.65;;;;;;;15.27;100.00;63573.03;5113029;28;20460;-77
2023/05/28 10:10:53;;;;;;;5.80;4.60;;;;;;;15.29;100.00;63575.09;5118030;28;20210;-78
2023/05/28 10:13:23;;;;;;;7.38;4.57;;;;;;;15.38;100.00;63587.53;5112977;28;20255;-77
2023/05/28 10:15:51;;;;;;;7.20;4.20;;;;;;;15.39;100.00;63588.06;5119047;28;20203;-79
2023/05/28 10:18:20;;;;;;;5.60;5.10;;;;;;;15.58;100.00;63613.47;5111361;28;20211;-78
2023/05/28 10:20:47;;;;;;;5.30;3.95;;;;;;;15.54;100.00;63604.19;5115961;28;20195;-79
2023/05/28 10:23:16;;;;;;;6.40;3.33;;;;;;;15.50;100.00;63596.94;5106140;28;20196;-78
2023/05/28 10:25:42;;;;;;;3.75;3.55;;;;;;;15.53;100.00;63600.06;5117271;28;20206;-79
2023/05/28 10:28:15;;;;;;;4.75;4.38;;;;;;;15.61;100.00;63611.47;5107538;28;20424;-78
2023/05/28 10:30:43;;;;;;;4.75;4.40;;;;;;;15.65;100.00;63615.09;5117112;28;20199;-79
2023/05/28 10:33:15;;;;;;;4.65;4.35;;;;;;;15.73;100.00;63623.41;5104710;28;20219;-81
2023/05/28 10:35:52;;;;;;;4.72;4.38;;;;;;;15.79;100.00;63627.09;5103928;28;20371;-78
2023/05/28 10:38:19;;;;;;;4.90;4.60;;;;;;;15.87;100.00;63640.53;5114139;28;20195;-79
2023/05/28 10:40:48;;;;;;;5.18;4.72;;;;;;;15.81;100.00;63637.38;5107354;28;20200;-79
2023/05/28 10:43:45;;;;;;;5.25;4.85;;;;;;;16.06;100.00;63658.25;5114840;28;20203;-78
2023/05/28 10:46:16;;;;;;;8.48;5.80;;;;;;;16.23;100.00;63674.88;5121275;28;20278;-78
2023/05/28 10:49:08;;;;;;;6.68;5.97;;;;;;;16.15;100.00;63662.47;5113180;28;20231;-80
2023/05/28 10:51:45;;;;;;;5.70;4.97;;;;;;;16.41;100.00;63693.63;5113647;28;20625;-80
2023/05/28 10:54:16;;;;;;;6.65;5.40;;;;;;;16.53;100.00;63706.13;5113072;28;20424;-79
2023/05/28 10:57:08;;;;;;;5.55;5.15;;;;;;;16.83;100.00;63737.84;5114535;28;20203;-79
2023/05/28 10:59:48;;;;;;;5.43;4.95;;;;;;;16.73;100.00;63727.44;5106219;28;20200;-79
2023/05/28 11:02:22;;;;;;;6.03;5.50;;;;;;;16.94;100.00;63749.31;5119883;28;20551;-79
2023/05/28 11:04:51;;;;;;;6.88;5.35;;;;;;;17.24;100.00;63780.53;5118409;28;20225;-79
2023/05/28 11:07:20;;;;;;;7.57;5.03;;;;;;;17.08;100.00;63763.34;5122631;28;20227;-77
2023/05/28 11:09:50;;;;;;;5.45;4.93;;;;;;;17.45;100.00;63798.78;5126847;28;20250;-79
2023/05/28 11:12:17;;;;;;;5.10;4.60;;;;;;;17.78;100.00;63833.69;5122250;27;20215;-79
2023/05/28 11:14:44;;;;;;;4.97;4.60;;;;;;;17.89;100.00;63849.75;5118010;28;20223;-79
2023/05/28 11:17:13;;;;;;;5.22;4.80;;;;;;;17.69;100.00;63828.94;5122219;28;20226;-80
2023/05/28 11:19:45;;;;;;;5.22;4.72;;;;;;;17.86;100.00;63841.50;5112776;28;20190;-78
2023/05/28 11:22:13;;;;;;;6.03;5.38;;;;;;;18.27;100.00;63887.28;5117815;28;20211;-79
2023/05/28 11:24:55;;;;;;;5.43;5.03;;;;;;;18.57;100.00;63920.63;5123693;28;20191;-78
2023/05/28 11:27:23;;;;;;;5.38;4.88;;;;;;;18.65;100.00;63925.88;5117973;28;20346;-80
2023/05/28 11:29:50;;;;;;;5.72;5.20;;;;;;;18.96;100.00;63956.13;5118975;27;20191;-79